Time;durP1;ratioP1;P1;durP2;ratioP2;P2;SDS_P1;SDS_P2;PMS_P1;PMS_P2;Temp;Humidity;BMP_temperature;BMP_pressure;BME280_temperature;BME280_humidity;BME280_pressure;Samples;Min_cycle;Max_cycle;Signal;HPM_P1;HPM_P2
2023/08/15 00:00:20;;;;;;;;;;;18.90;99.90;;;;;;5141890;27;19918;-43
2023/08/15 00:02:46;;;;;;;;;;;18.90;99.90;;;;;;5136406;27;19911;-43
2023/08/15 00:05:11;;;;;;;;;;;18.90;99.90;;;;;;5146012;27;20389;-43
2023/08/15 00:07:37;;;;;;;;;;;18.90;99.90;;;;;;5135466;27;20052;-42
2023/08/15 00:10:02;;;;;;;;;;;18.90;99.90;;;;;;5150401;27;19907;-45
2023/08/15 00:12:28;;;;;;;;;;;18.80;99.90;;;;;;5155186;27;19919;-42
2023/08/15 00:14:53;;;;;;;;;;;18.90;99.90;;;;;;5156024;27;19922;-44
2023/08/15 00:17:19;;;;;;;;;;;18.80;99.90;;;;;;5156015;27;19994;-42
2023/08/15 00:19:44;;;;;;;;;;;18.90;99.90;;;;;;5155066;27;19952;-43
2023/08/15 00:22:10;;;;;;;;;;;18.80;99.90;;;;;;5140956;27;20007;-44
2023/08/15 00:24:35;;;;;;;;;;;18.80;99.90;;;;;;5135089;27;19907;-43
2023/08/15 00:27:01;;;;;;;;;;;18.80;99.90;;;;;;5134213;27;19935;-43
2023/08/15 00:29:26;;;;;;;;;;;18.70;99.90;;;;;;5134167;27;20407;-44
2023/08/15 00:31:52;;;;;;;;;;;18.70;99.90;;;;;;5134816;27;19914;-44
2023/08/15 00:34:17;;;;;;;;;;;18.70;99.90;;;;;;5133905;27;19941;-44
2023/08/15 00:36:43;;;;;;;;;;;18.60;99.90;;;;;;5134855;27;19908;-44
2023/08/15 00:39:08;;;;;;;;;;;18.60;99.90;;;;;;5134707;27;19908;-43
2023/08/15 00:41:34;;;;;;;;;;;18.60;99.90;;;;;;5134217;27;19914;-44
2023/08/15 00:43:59;;;;;;;;;;;18.60;99.90;;;;;;5134398;27;19919;-43
2023/08/15 00:46:27;;;;;;;;;;;18.60;99.90;;;;;;5134544;27;20044;-46
2023/08/15 00:48:53;;;;;;;;;;;18.60;99.90;;;;;;5133857;27;19914;-42
2023/08/15 00:51:19;;;;;;;;;;;18.60;99.90;;;;;;5134476;27;19908;-43
2023/08/15 00:53:45;;;;;;;;;;;18.60;99.90;;;;;;5134378;27;20285;-42
2023/08/15 00:56:10;;;;;;;;;;;18.50;99.90;;;;;;5133576;27;19914;-44
2023/08/15 00:58:36;;;;;;;;;;;18.50;99.90;;;;;;5148329;27;19907;-44
2023/08/15 01:01:02;;;;;;;;;;;18.60;99.90;;;;;;5154941;27;19918;-44
2023/08/15 01:03:28;;;;;;;;;;;18.50;99.90;;;;;;5154118;27;19907;-45
2023/08/15 01:05:54;;;;;;;;;;;18.60;99.90;;;;;;5154981;27;19953;-45
2023/08/15 01:08:20;;;;;;;;;;;18.60;99.90;;;;;;5154191;27;19911;-43
2023/08/15 01:10:45;;;;;;;;;;;18.60;99.90;;;;;;5153993;27;19911;-44
2023/08/15 01:13:11;;;;;;;;;;;18.60;99.90;;;;;;5144241;27;19958;-42
2023/08/15 01:15:39;;;;;;;;;;;18.60;99.90;;;;;;5142309;27;20445;-44
2023/08/15 01:18:31;;;;;;;;;;;18.60;99.90;;;;;;5150126;27;19931;-46
2023/08/15 01:20:58;;;;;;;;;;;18.60;99.90;;;;;;5129689;27;20491;-44
2023/08/15 01:23:24;;;;;;;;;;;18.60;99.90;;;;;;5144042;27;19919;-44
2023/08/15 01:25:53;;;;;;;;;;;18.60;99.90;;;;;;5154260;27;19976;-43
2023/08/15 01:28:18;;;;;;;;;;;18.60;99.90;;;;;;5150680;27;19918;-43
2023/08/15 01:30:51;;;;;;;;;;;18.60;99.90;;;;;;5144136;27;19911;-43
2023/08/15 01:33:16;;;;;;;;;;;18.60;99.90;;;;;;5154272;27;19922;-47
2023/08/15 01:35:50;;;;;;;;;;;18.60;99.90;;;;;;5135643;27;19907;-44
2023/08/15 01:38:40;;;;;;;;;;;18.60;99.90;;;;;;5133020;27;20358;-44
2023/08/15 01:41:07;;;;;;;;;;;18.60;99.90;;;;;;5133587;27;19930;-43
2023/08/15 01:43:33;;;;;;;;;;;18.60;99.90;;;;;;5133021;27;20005;-47
2023/08/15 01:45:58;;;;;;;;;;;18.60;99.90;;;;;;5136199;27;19935;-43
2023/08/15 01:48:24;;;;;;;;;;;18.60;99.90;;;;;;5154457;27;19915;-42
2023/08/15 01:50:49;;;;;;;;;;;18.70;99.90;;;;;;5153630;27;19908;-44
2023/08/15 01:53:14;;;;;;;;;;;18.60;99.90;;;;;;5154222;27;20384;-44
2023/08/15 01:55:40;;;;;;;;;;;18.70;99.90;;;;;;5154385;27;20028;-44
2023/08/15 01:58:05;;;;;;;;;;;18.60;99.90;;;;;;5153483;27;19930;-44
2023/08/15 02:00:31;;;;;;;;;;;18.60;99.90;;;;;;5154429;27;19907;-42
2023/08/15 02:02:56;;;;;;;;;;;18.60;99.90;;;;;;5154425;27;19907;-46
2023/08/15 02:05:22;;;;;;;;;;;18.60;99.90;;;;;;5153403;27;19911;-43
2023/08/15 02:07:48;;;;;;;;;;;18.50;99.90;;;;;;5154236;27;19907;-44
2023/08/15 02:10:13;;;;;;;;;;;18.50;99.90;;;;;;5154228;27;19907;-43
2023/08/15 02:12:39;;;;;;;;;;;18.60;99.90;;;;;;5153430;27;19929;-42
2023/08/15 02:15:05;;;;;;;;;;;18.60;99.90;;;;;;5136526;27;19911;-46
2023/08/15 02:17:30;;;;;;;;;;;18.60;99.90;;;;;;5133314;28;20046;-42
2023/08/15 02:19:56;;;;;;;;;;;18.60;99.90;;;;;;5132686;28;19908;-42
2023/08/15 02:22:21;;;;;;;;;;;18.60;99.90;;;;;;5133243;28;19938;-42
2023/08/15 02:24:47;;;;;;;;;;;18.60;99.90;;;;;;5133710;28;19907;-44
2023/08/15 02:27:12;;;;;;;;;;;18.60;99.90;;;;;;5114261;28;19907;-43
2023/08/15 02:29:38;;;;;;;;;;;18.60;99.90;;;;;;5133362;28;19914;-43
2023/08/15 02:32:03;;;;;;;;;;;18.50;99.90;;;;;;5133328;28;19908;-43
2023/08/15 02:34:29;;;;;;;;;;;18.50;99.90;;;;;;5132376;28;20370;-42
2023/08/15 02:36:54;;;;;;;;;;;18.50;99.90;;;;;;5133326;28;19907;-44
2023/08/15 02:39:20;;;;;;;;;;;18.50;99.90;;;;;;5133194;28;19914;-44
2023/08/15 02:41:45;;;;;;;;;;;18.50;99.90;;;;;;5132607;28;19911;-45
2023/08/15 02:44:11;;;;;;;;;;;18.50;99.90;;;;;;5132595;28;19920;-46
2023/08/15 02:46:36;;;;;;;;;;;18.60;99.90;;;;;;5133099;28;19914;-45
2023/08/15 02:49:02;;;;;;;;;;;18.60;99.90;;;;;;5132409;28;19911;-44
2023/08/15 02:51:27;;;;;;;;;;;18.60;99.90;;;;;;5133029;28;20006;-42
2023/08/15 02:53:53;;;;;;;;;;;18.60;99.90;;;;;;5135221;27;19922;-47
2023/08/15 02:56:18;;;;;;;;;;;18.60;99.90;;;;;;5136707;27;19915;-43
2023/08/15 02:58:44;;;;;;;;;;;18.60;99.90;;;;;;5136845;27;19915;-43
2023/08/15 03:01:09;;;;;;;;;;;18.60;99.90;;;;;;5135795;27;19914;-43
2023/08/15 03:03:35;;;;;;;;;;;18.60;99.90;;;;;;5136377;27;19959;-42
2023/08/15 03:06:01;;;;;;;;;;;18.70;99.90;;;;;;5136606;27;19907;-44
2023/08/15 03:08:27;;;;;;;;;;;18.70;99.90;;;;;;5135732;27;19915;-43
2023/08/15 03:10:53;;;;;;;;;;;18.70;99.90;;;;;;5136580;27;19996;-44
2023/08/15 03:13:19;;;;;;;;;;;18.80;99.90;;;;;;5136327;27;19916;-42
2023/08/15 03:15:55;;;;;;;;;;;18.80;99.90;;;;;;5135842;27;19914;-43
2023/08/15 03:18:20;;;;;;;;;;;18.90;99.90;;;;;;5136335;27;20045;-42
2023/08/15 03:21:02;;;;;;;;;;;18.90;99.90;;;;;;5136485;27;19976;-43
2023/08/15 03:23:28;;;;;;;;;;;18.90;99.90;;;;;;5146180;27;20040;-43
2023/08/15 03:25:56;;;;;;;;;;;18.90;99.90;;;;;;5156985;27;19952;-43
2023/08/15 03:28:21;;;;;;;;;;;18.90;99.90;;;;;;5156818;27;19994;-42
2023/08/15 03:30:47;;;;;;;;;;;18.90;99.90;;;;;;5156053;27;19998;-45
2023/08/15 03:33:12;;;;;;;;;;;18.90;99.90;;;;;;5155986;27;19919;-43
2023/08/15 03:35:45;;;;;;;;;;;19.00;99.90;;;;;;5148276;27;19959;-44
2023/08/15 03:38:12;;;;;;;;;;;19.00;99.90;;;;;;5136297;27;19994;-45
2023/08/15 03:40:38;;;;;;;;;;;19.00;99.90;;;;;;5148939;27;19912;-43
2023/08/15 03:43:03;;;;;;;;;;;19.00;99.90;;;;;;5156371;27;19918;-45
2023/08/15 03:45:29;;;;;;;;;;;19.00;99.90;;;;;;5151675;27;19926;-43
2023/08/15 03:47:56;;;;;;;;;;;19.00;99.90;;;;;;5145881;27;20333;-44
2023/08/15 03:50:22;;;;;;;;;;;19.00;99.90;;;;;;5155730;27;20418;-43
2023/08/15 03:52:47;;;;;;;;;;;19.00;99.90;;;;;;5138754;27;20006;-44
2023/08/15 03:55:13;;;;;;;;;;;19.00;99.90;;;;;;5135496;27;19964;-44
2023/08/15 03:57:38;;;;;;;;;;;19.10;99.90;;;;;;5134935;27;19908;-44
2023/08/15 04:00:05;;;;;;;;;;;19.10;99.90;;;;;;5135530;27;19960;-43
2023/08/15 04:02:30;;;;;;;;;;;19.10;99.90;;;;;;5135462;27;19907;-43
2023/08/15 04:04:56;;;;;;;;;;;19.10;99.90;;;;;;5134856;27;19907;-44
2023/08/15 04:07:21;;;;;;;;;;;19.10;99.90;;;;;;5135438;27;19919;-42
2023/08/15 04:09:47;;;;;;;;;;;19.10;99.90;;;;;;5135407;27;20361;-42
2023/08/15 04:12:12;;;;;;;;;;;19.10;99.90;;;;;;5134522;27;19943;-44
2023/08/15 04:14:38;;;;;;;;;;;19.20;99.90;;;;;;5135184;27;19923;-44
2023/08/15 04:17:04;;;;;;;;;;;19.20;99.90;;;;;;5135215;27;20425;-45
2023/08/15 04:19:30;;;;;;;;;;;19.20;99.90;;;;;;5134354;27;19959;-43
2023/08/15 04:21:56;;;;;;;;;;;19.20;99.90;;;;;;5135164;27;19998;-44
2023/08/15 04:24:21;;;;;;;;;;;19.20;99.90;;;;;;5135095;27;19914;-45
2023/08/15 04:26:46;;;;;;;;;;;19.20;99.90;;;;;;5134622;27;19999;-44
2023/08/15 04:29:12;;;;;;;;;;;19.30;99.90;;;;;;5134932;27;20304;-44
2023/08/15 04:31:37;;;;;;;;;;;19.30;99.90;;;;;;5134902;27;19908;-44
2023/08/15 04:34:03;;;;;;;;;;;19.30;99.90;;;;;;5134121;27;19968;-45
2023/08/15 04:36:29;;;;;;;;;;;19.30;99.90;;;;;;5134696;27;19908;-43
2023/08/15 04:38:55;;;;;;;;;;;19.30;99.90;;;;;;5134898;27;20311;-43
2023/08/15 04:41:20;;;;;;;;;;;19.30;99.90;;;;;;5136280;27;19918;-42
2023/08/15 04:43:45;;;;;;;;;;;19.30;99.90;;;;;;5136472;27;19970;-43
2023/08/15 04:46:11;;;;;;;;;;;19.30;99.90;;;;;;5129305;27;19941;-45
2023/08/15 04:48:36;;;;;;;;;;;19.20;99.90;;;;;;5112430;28;19915;-44
2023/08/15 04:51:02;;;;;;;;;;;19.20;99.90;;;;;;5113670;28;19990;-49
2023/08/15 04:53:27;;;;;;;;;;;19.10;99.90;;;;;;5129646;27;19916;-53
2023/08/15 04:55:53;;;;;;;;;;;19.00;99.90;;;;;;5126690;27;19919;-44
2023/08/15 04:58:18;;;;;;;;;;;19.00;99.90;;;;;;5118875;27;19912;-46
2023/08/15 05:00:44;;;;;;;;;;;19.00;99.90;;;;;;5125815;27;19907;-46
2023/08/15 05:03:09;;;;;;;;;;;18.90;99.90;;;;;;5134216;27;19907;-46
2023/08/15 05:05:35;;;;;;;;;;;19.00;99.90;;;;;;5127213;27;20367;-45
2023/08/15 05:08:00;;;;;;;;;;;19.00;99.90;;;;;;5113087;28;19912;-45
2023/08/15 05:10:26;;;;;;;;;;;19.00;99.90;;;;;;5113603;28;19915;-45
2023/08/15 05:12:52;;;;;;;;;;;19.00;99.90;;;;;;5113643;28;20316;-48
2023/08/15 05:15:17;;;;;;;;;;;19.00;99.90;;;;;;5126248;27;19911;-45
2023/08/15 05:17:43;;;;;;;;;;;18.90;99.90;;;;;;5127163;27;20402;-46
2023/08/15 05:20:09;;;;;;;;;;;18.90;99.90;;;;;;5135546;27;19956;-44
2023/08/15 05:22:35;;;;;;;;;;;18.90;99.90;;;;;;5142452;27;19915;-45
2023/08/15 05:25:00;;;;;;;;;;;18.90;99.90;;;;;;5146230;27;19972;-45
2023/08/15 05:27:26;;;;;;;;;;;18.90;99.90;;;;;;5137499;27;20322;-45
2023/08/15 05:29:51;;;;;;;;;;;18.90;99.90;;;;;;5138750;27;19911;-44
2023/08/15 05:32:17;;;;;;;;;;;18.90;99.90;;;;;;5143283;27;20269;-45
2023/08/15 05:34:42;;;;;;;;;;;18.90;99.90;;;;;;5139018;27;19998;-45
2023/08/15 05:37:08;;;;;;;;;;;18.80;99.90;;;;;;5142348;27;19953;-44
2023/08/15 05:39:33;;;;;;;;;;;18.80;99.90;;;;;;5127470;27;20397;-47
2023/08/15 05:41:59;;;;;;;;;;;18.90;99.90;;;;;;5122817;27;19997;-47
2023/08/15 05:44:24;;;;;;;;;;;18.90;99.90;;;;;;5126768;27;19923;-45
2023/08/15 05:46:50;;;;;;;;;;;18.80;99.90;;;;;;5124370;27;20315;-45
2023/08/15 05:49:15;;;;;;;;;;;18.80;99.90;;;;;;5131466;28;19908;-46
2023/08/15 05:51:40;;;;;;;;;;;18.80;99.90;;;;;;5136026;27;19964;-47
2023/08/15 05:54:06;;;;;;;;;;;18.80;99.90;;;;;;5139783;27;19915;-47
2023/08/15 05:56:31;;;;;;;;;;;18.80;99.90;;;;;;5123775;28;19971;-45
2023/08/15 05:58:57;;;;;;;;;;;18.80;99.90;;;;;;5126663;27;19946;-43
2023/08/15 06:01:22;;;;;;;;;;;18.80;99.90;;;;;;5130172;27;19919;-46
2023/08/15 06:03:48;;;;;;;;;;;18.70;99.90;;;;;;5121419;28;19912;-52
2023/08/15 06:06:13;;;;;;;;;;;18.70;99.90;;;;;;5126108;27;20361;-45
2023/08/15 06:08:39;;;;;;;;;;;18.70;99.90;;;;;;5130157;27;20266;-47
2023/08/15 06:11:05;;;;;;;;;;;18.80;99.90;;;;;;5132588;27;19912;-45
2023/08/15 06:13:30;;;;;;;;;;;18.70;99.90;;;;;;5133292;28;19920;-45
2023/08/15 06:15:56;;;;;;;;;;;18.80;99.90;;;;;;5144138;27;19918;-45
2023/08/15 06:18:21;;;;;;;;;;;18.80;99.90;;;;;;5141417;27;20005;-46
2023/08/15 06:20:49;;;;;;;;;;;18.80;99.90;;;;;;5154200;27;20012;-50
2023/08/15 06:23:14;;;;;;;;;;;18.70;99.90;;;;;;5138240;27;20002;-50
2023/08/15 06:25:40;;;;;;;;;;;18.70;99.90;;;;;;5142630;27;20001;-46
2023/08/15 06:28:07;;;;;;;;;;;18.70;99.90;;;;;;5140264;27;19941;-46
2023/08/15 06:30:32;;;;;;;;;;;18.70;99.90;;;;;;5137289;27;20258;-47
2023/08/15 06:32:58;;;;;;;;;;;18.70;99.90;;;;;;5135101;27;20036;-45
2023/08/15 06:35:28;;;;;;;;;;;18.70;99.90;;;;;;5136554;27;20006;-48
2023/08/15 06:37:54;;;;;;;;;;;18.60;99.90;;;;;;5136193;27;19911;-46
2023/08/15 06:40:19;;;;;;;;;;;18.60;99.90;;;;;;5135885;27;19961;-47
2023/08/15 06:42:45;;;;;;;;;;;18.60;99.90;;;;;;5136074;27;20274;-45
2023/08/15 06:45:16;;;;;;;;;;;18.70;99.90;;;;;;5136026;27;19926;-45
2023/08/15 06:47:42;;;;;;;;;;;18.70;99.90;;;;;;5135361;27;19958;-46
2023/08/15 06:50:08;;;;;;;;;;;18.80;99.90;;;;;;5140056;27;19946;-44
2023/08/15 06:52:34;;;;;;;;;;;18.90;99.90;;;;;;5150914;27;19914;-46
2023/08/15 06:55:01;;;;;;;;;;;18.90;99.90;;;;;;5129600;27;19915;-50
2023/08/15 06:57:27;;;;;;;;;;;19.00;99.90;;;;;;5135468;27;19923;-46
2023/08/15 06:59:53;;;;;;;;;;;19.00;99.90;;;;;;5136474;27;19915;-45
2023/08/15 07:02:18;;;;;;;;;;;19.10;99.90;;;;;;5134835;27;20308;-46
2023/08/15 07:04:47;;;;;;;;;;;19.10;99.90;;;;;;5132494;27;19917;-45
2023/08/15 07:07:12;;;;;;;;;;;19.10;99.90;;;;;;5118242;27;19916;-45
2023/08/15 07:09:38;;;;;;;;;;;19.10;99.90;;;;;;5131167;27;19934;-45
2023/08/15 07:12:05;;;;;;;;;;;19.20;99.90;;;;;;5117153;27;19933;-45
2023/08/15 07:14:33;;;;;;;;;;;19.20;99.90;;;;;;5134897;27;19920;-45
2023/08/15 07:16:58;;;;;;;;;;;19.30;99.90;;;;;;5123629;27;19957;-45
2023/08/15 07:19:24;;;;;;;;;;;19.30;99.90;;;;;;5134128;27;19907;-45
2023/08/15 07:21:49;;;;;;;;;;;19.40;99.90;;;;;;5128227;27;19917;-45
2023/08/15 07:24:15;;;;;;;;;;;19.40;99.90;;;;;;5127253;27;19919;-44
2023/08/15 07:26:41;;;;;;;;;;;19.50;99.90;;;;;;5122833;27;20010;-45
2023/08/15 07:29:06;;;;;;;;;;;19.50;99.90;;;;;;5133781;27;19908;-45
2023/08/15 07:31:32;;;;;;;;;;;19.60;99.90;;;;;;5136047;27;19908;-44
2023/08/15 07:33:57;;;;;;;;;;;19.70;99.90;;;;;;5134836;27;19933;-46
2023/08/15 07:36:23;;;;;;;;;;;19.70;99.90;;;;;;5135216;27;19912;-44
2023/08/15 07:38:48;;;;;;;;;;;19.70;99.90;;;;;;5135606;27;19907;-44
2023/08/15 07:41:14;;;;;;;;;;;19.70;99.90;;;;;;5135955;27;19907;-46
2023/08/15 07:43:40;;;;;;;;;;;19.90;99.90;;;;;;5147223;27;19971;-46
2023/08/15 07:46:05;;;;;;;;;;;19.90;99.90;;;;;;5146923;27;19915;-48
2023/08/15 07:48:30;;;;;;;;;;;19.90;99.90;;;;;;5155966;27;19975;-47
2023/08/15 07:50:56;;;;;;;;;;;20.00;99.90;;;;;;5155446;27;20289;-45
2023/08/15 07:53:23;;;;;;;;;;;20.10;99.90;;;;;;5156083;27;20052;-49
2023/08/15 07:55:48;;;;;;;;;;;20.20;99.90;;;;;;5156140;27;19968;-49
2023/08/15 07:58:14;;;;;;;;;;;20.30;99.90;;;;;;5154683;27;20362;-45
2023/08/15 08:00:41;;;;;;;;;;;20.30;99.90;;;;;;5156768;27;19913;-44
2023/08/15 08:03:07;;;;;;;;;;;20.40;99.90;;;;;;5152909;27;19920;-45
2023/08/15 08:05:33;;;;;;;;;;;20.40;99.90;;;;;;5135655;27;19912;-47
2023/08/15 08:07:58;;;;;;;;;;;20.60;99.90;;;;;;5124857;27;19914;-44
2023/08/15 08:10:24;;;;;;;;;;;20.60;99.90;;;;;;5112990;28;19918;-51
2023/08/15 08:12:49;;;;;;;;;;;20.60;99.90;;;;;;5119000;27;20350;-45
2023/08/15 08:15:15;;;;;;;;;;;20.60;99.90;;;;;;5131201;27;19924;-45
2023/08/15 08:17:41;;;;;;;;;;;20.50;99.90;;;;;;5131412;27;19938;-46
2023/08/15 08:20:11;;;;;;;;;;;20.60;99.90;;;;;;5132351;27;19907;-48
2023/08/15 08:22:36;;;;;;;;;;;20.70;99.90;;;;;;5131874;27;20119;-45
2023/08/15 08:25:09;;;;;;;;;;;20.70;99.90;;;;;;5130824;27;19908;-46
2023/08/15 08:27:35;;;;;;;;;;;20.70;99.90;;;;;;5132002;27;19912;-44
2023/08/15 08:30:00;;;;;;;;;;;20.80;99.90;;;;;;5134158;27;19952;-44
2023/08/15 08:32:26;;;;;;;;;;;20.70;99.90;;;;;;5131788;27;20536;-45
2023/08/15 08:34:52;;;;;;;;;;;20.80;99.90;;;;;;5112767;28;19916;-45
2023/08/15 08:37:18;;;;;;;;;;;20.80;99.90;;;;;;5113888;27;19957;-46
2023/08/15 08:39:43;;;;;;;;;;;20.70;99.90;;;;;;5131472;27;20376;-46
2023/08/15 08:42:09;;;;;;;;;;;20.70;99.90;;;;;;5132540;27;19908;-44
2023/08/15 08:44:35;;;;;;;;;;;20.60;99.90;;;;;;5132186;27;20347;-44
2023/08/15 08:47:01;;;;;;;;;;;20.70;99.90;;;;;;5132910;27;19915;-45
2023/08/15 08:49:27;;;;;;;;;;;20.70;99.90;;;;;;5132469;27;19919;-43
2023/08/15 08:51:53;;;;;;;;;;;20.80;99.90;;;;;;5133007;27;19919;-46
2023/08/15 08:54:19;;;;;;;;;;;20.80;99.90;;;;;;5131479;27;19923;-46
2023/08/15 08:56:45;;;;;;;;;;;21.00;99.90;;;;;;5133365;27;20251;-46
2023/08/15 08:59:12;;;;;;;;;;;21.10;99.90;;;;;;5136484;27;19911;-45
2023/08/15 09:01:37;;;;;;;;;;;21.30;99.90;;;;;;5133520;27;19994;-47
2023/08/15 09:04:03;;;;;;;;;;;21.30;99.90;;;;;;5134198;27;19999;-45
2023/08/15 09:06:29;;;;;;;;;;;21.50;99.90;;;;;;5134225;27;19911;-43
2023/08/15 09:08:57;;;;;;;;;;;21.60;99.90;;;;;;5118129;27;19912;-46
2023/08/15 09:11:22;;;;;;;;;;;21.70;99.90;;;;;;5112604;28;19960;-46
2023/08/15 09:13:49;;;;;;;;;;;21.70;99.90;;;;;;5112395;28;20026;-45
2023/08/15 09:16:15;;;;;;;;;;;21.80;99.90;;;;;;5112914;28;20002;-45
2023/08/15 09:18:41;;;;;;;;;;;21.90;99.90;;;;;;5113941;27;20015;-43
2023/08/15 09:21:06;;;;;;;;;;;22.00;99.90;;;;;;5113487;28;19999;-45
2023/08/15 09:23:32;;;;;;;;;;;22.00;99.90;;;;;;5113987;28;20282;-47
2023/08/15 09:25:58;;;;;;;;;;;22.00;99.90;;;;;;5119809;27;19957;-45
2023/08/15 09:28:24;;;;;;;;;;;22.00;99.90;;;;;;5146174;27;20456;-44
2023/08/15 09:30:53;;;;;;;;;;;22.10;99.90;;;;;;5140333;27;20005;-44
2023/08/15 09:33:18;;;;;;;;;;;22.20;99.90;;;;;;5139153;27;20380;-45
2023/08/15 09:35:45;;;;;;;;;;;22.40;99.90;;;;;;5133094;27;20002;-47
2023/08/15 09:38:10;;;;;;;;;;;22.50;99.90;;;;;;5133822;27;19911;-43
2023/08/15 09:40:37;;;;;;;;;;;22.60;99.90;;;;;;5133536;27;19975;-46
2023/08/15 09:43:03;;;;;;;;;;;22.60;99.90;;;;;;5132911;27;20011;-44
2023/08/15 09:45:28;;;;;;;;;;;22.50;99.90;;;;;;5134001;27;20401;-46
2023/08/15 09:47:54;;;;;;;;;;;22.50;99.90;;;;;;5116870;27;20358;-46
2023/08/15 09:50:20;;;;;;;;;;;22.60;99.90;;;;;;5113171;28;20006;-43
2023/08/15 09:52:46;;;;;;;;;;;22.50;99.90;;;;;;5113693;28;19996;-45
2023/08/15 09:55:14;;;;;;;;;;;22.40;99.90;;;;;;5113508;28;19923;-45
2023/08/15 09:57:40;;;;;;;;;;;22.30;99.90;;;;;;5113030;28;19907;-44
2023/08/15 10:00:09;;;;;;;;;;;22.20;99.90;;;;;;5113261;28;20028;-47
2023/08/15 10:02:43;;;;;;;;;;;22.20;99.90;;;;;;5116043;28;19908;-44
2023/08/15 10:05:11;;;;;;;;;;;22.20;99.90;;;;;;5135303;27;19968;-44
2023/08/15 10:07:36;;;;;;;;;;;22.20;99.90;;;;;;5137505;27;20346;-43
2023/08/15 10:10:03;;;;;;;;;;;22.10;99.90;;;;;;5137740;27;19908;-45
2023/08/15 10:12:29;;;;;;;;;;;22.10;99.90;;;;;;5138081;27;19907;-45
2023/08/15 10:14:56;;;;;;;;;;;22.00;99.90;;;;;;5138233;27;19923;-45
2023/08/15 10:17:22;;;;;;;;;;;22.00;99.90;;;;;;5137515;27;19908;-44
2023/08/15 10:19:48;;;;;;;;;;;22.20;99.90;;;;;;5138215;27;19962;-44
2023/08/15 10:22:18;;;;;;;;;;;22.30;99.90;;;;;;5137337;27;19915;-44
2023/08/15 10:24:44;;;;;;;;;;;22.40;99.90;;;;;;5136705;27;19911;-44
2023/08/15 10:27:10;;;;;;;;;;;22.60;99.90;;;;;;5136640;27;19962;-45
2023/08/15 10:29:52;;;;;;;;;;;22.60;99.90;;;;;;5137165;27;20385;-44
2023/08/15 10:32:22;;;;;;;;;;;22.70;99.90;;;;;;5135664;27;19908;-44
2023/08/15 10:34:57;;;;;;;;;;;22.70;99.90;;;;;;5137146;27;20320;-44
2023/08/15 10:37:30;;;;;;;;;;;22.70;99.90;;;;;;5137212;27;20378;-47
2023/08/15 10:40:08;;;;;;;;;;;22.60;99.90;;;;;;5136415;27;19907;-45
2023/08/15 10:42:54;;;;;;;;;;;22.50;99.90;;;;;;5137148;27;20176;-45
2023/08/15 10:45:19;;;;;;;;;;;22.40;99.90;;;;;;5135844;27;19926;-44
2023/08/15 10:47:45;;;;;;;;;;;22.40;99.90;;;;;;5136954;27;19911;-44
2023/08/15 10:50:11;;;;;;;;;;;22.50;99.90;;;;;;5137542;27;19907;-45
2023/08/15 10:52:39;;;;;;;;;;;22.60;99.90;;;;;;5156806;27;19907;-47
2023/08/15 10:55:05;;;;;;;;;;;22.60;99.90;;;;;;5158272;27;19911;-44
2023/08/15 10:57:32;;;;;;;;;;;22.50;99.90;;;;;;5158305;27;19914;-43
2023/08/15 10:59:58;;;;;;;;;;;22.50;99.90;;;;;;5157391;27;19907;-44
2023/08/15 11:02:24;;;;;;;;;;;22.40;99.90;;;;;;5155981;27;19911;-45
2023/08/15 11:07:54;;;;;;;;;;;22.40;99.90;;;;;;5157680;27;19953;-46
2023/08/15 11:10:20;;;;;;;;;;;22.50;99.90;;;;;;5157762;27;20346;-43
2023/08/15 11:12:49;;;;;;;;;;;22.70;99.90;;;;;;5157167;27;19915;-44
2023/08/15 11:15:17;;;;;;;;;;;22.80;99.90;;;;;;5146998;27;20057;-46
2023/08/15 11:17:45;;;;;;;;;;;22.90;99.90;;;;;;5116553;28;19908;-45
2023/08/15 11:20:11;;;;;;;;;;;23.00;99.90;;;;;;5116614;28;19915;-45
2023/08/15 11:22:37;;;;;;;;;;;23.10;99.90;;;;;;5116055;28;19915;-43
2023/08/15 11:25:02;;;;;;;;;;;23.20;99.90;;;;;;5115264;27;20350;-46
2023/08/15 11:27:28;;;;;;;;;;;23.30;99.90;;;;;;5115587;28;19947;-44
2023/08/15 11:29:59;;;;;;;;;;;23.60;99.90;;;;;;5115893;28;20407;-44
2023/08/15 11:32:25;;;;;;;;;;;23.80;99.90;;;;;;5115752;28;19908;-42
2023/08/15 11:34:50;;;;;;;;;;;23.70;99.90;;;;;;5115521;28;19969;-44
2023/08/15 11:37:17;;;;;;;;;;;23.60;99.90;;;;;;5116235;28;20381;-44
2023/08/15 11:39:42;;;;;;;;;;;23.70;99.90;;;;;;5119385;27;19911;-45
2023/08/15 11:42:08;;;;;;;;;;;23.80;99.90;;;;;;5156689;27;20331;-46
2023/08/15 11:44:34;;;;;;;;;;;23.80;99.90;;;;;;5156921;27;19934;-44
2023/08/15 11:46:59;;;;;;;;;;;23.70;99.90;;;;;;5157294;27;19908;-50
2023/08/15 11:49:25;;;;;;;;;;;23.70;99.90;;;;;;5156697;27;19956;-47
2023/08/15 11:51:50;;;;;;;;;;;23.70;99.90;;;;;;5156996;27;19951;-43
2023/08/15 11:54:16;;;;;;;;;;;23.70;99.90;;;;;;5156582;27;19966;-45
2023/08/15 11:56:48;;;;;;;;;;;23.80;99.90;;;;;;5155645;27;19934;-44
2023/08/15 11:59:15;;;;;;;;;;;23.70;99.90;;;;;;5140320;27;19915;-47
2023/08/15 12:01:44;;;;;;;;;;;23.70;99.90;;;;;;5141875;27;19994;-48
2023/08/15 12:04:13;;;;;;;;;;;23.70;99.90;;;;;;5134816;27;20350;-46
2023/08/15 12:06:39;;;;;;;;;;;23.70;99.90;;;;;;5136278;27;19907;-45
2023/08/15 12:09:07;;;;;;;;;;;23.80;99.90;;;;;;5135103;27;19911;-49
2023/08/15 12:11:34;;;;;;;;;;;23.90;99.90;;;;;;5114887;28;19918;-51
2023/08/15 12:13:59;;;;;;;;;;;24.00;99.90;;;;;;5114816;28;19920;-48
2023/08/15 12:16:25;;;;;;;;;;;24.20;99.90;;;;;;5115339;28;19918;-43
2023/08/15 12:18:50;;;;;;;;;;;24.20;99.90;;;;;;5114581;28;19915;-44
2023/08/15 12:21:16;;;;;;;;;;;24.10;99.90;;;;;;5114464;28;19917;-44
2023/08/15 12:23:41;;;;;;;;;;;24.10;99.90;;;;;;5113702;28;20362;-44
2023/08/15 12:26:07;;;;;;;;;;;24.00;99.90;;;;;;5112878;28;20010;-48
2023/08/15 12:28:33;;;;;;;;;;;24.00;99.90;;;;;;5113615;28;19911;-44
2023/08/15 12:30:58;;;;;;;;;;;24.10;99.90;;;;;;5113496;28;19916;-44
2023/08/15 12:33:24;;;;;;;;;;;24.10;99.90;;;;;;5114354;28;19920;-44
2023/08/15 12:35:49;;;;;;;;;;;24.00;99.90;;;;;;5115202;27;19907;-43
2023/08/15 12:38:15;;;;;;;;;;;24.00;99.90;;;;;;5134120;27;19908;-44
2023/08/15 12:40:41;;;;;;;;;;;24.20;99.90;;;;;;5134706;27;19938;-46
2023/08/15 12:43:07;;;;;;;;;;;24.30;99.90;;;;;;5134732;27;20289;-46
2023/08/15 12:45:32;;;;;;;;;;;24.30;99.90;;;;;;5127350;27;19920;-44
2023/08/15 12:47:58;;;;;;;;;;;24.30;99.90;;;;;;5120745;27;19908;-44
2023/08/15 12:50:24;;;;;;;;;;;24.30;99.90;;;;;;5113360;28;19912;-44
2023/08/15 12:52:49;;;;;;;;;;;24.10;99.90;;;;;;5131114;27;19956;-43
2023/08/15 12:55:15;;;;;;;;;;;24.00;99.90;;;;;;5134031;27;19998;-45
2023/08/15 12:57:40;;;;;;;;;;;23.80;99.90;;;;;;5132104;27;19912;-43
2023/08/15 13:00:08;;;;;;;;;;;23.70;99.90;;;;;;5133447;27;20652;-45
2023/08/15 13:02:34;;;;;;;;;;;23.60;99.90;;;;;;5134326;27;19914;-44
2023/08/15 13:05:00;;;;;;;;;;;23.50;99.90;;;;;;5133489;27;19998;-47
2023/08/15 13:07:25;;;;;;;;;;;23.60;99.90;;;;;;5133596;27;20392;-43
2023/08/15 13:09:51;;;;;;;;;;;23.90;99.90;;;;;;5134670;27;19907;-46
2023/08/15 13:12:16;;;;;;;;;;;24.30;99.90;;;;;;5135181;27;19934;-44
2023/08/15 13:14:45;;;;;;;;;;;24.80;99.90;;;;;;5133175;27;20014;-44
2023/08/15 13:17:11;;;;;;;;;;;25.10;99.90;;;;;;5132790;27;20411;-44
2023/08/15 13:19:36;;;;;;;;;;;25.10;99.90;;;;;;5123397;27;19918;-45
2023/08/15 13:22:02;;;;;;;;;;;25.00;99.90;;;;;;5113303;28;19986;-46
2023/08/15 13:24:27;;;;;;;;;;;25.00;99.90;;;;;;5113815;28;19912;-48
2023/08/15 13:26:53;;;;;;;;;;;25.10;99.90;;;;;;5129169;27;19971;-51
2023/08/15 13:29:18;;;;;;;;;;;24.90;99.90;;;;;;5133796;27;19936;-44
2023/08/15 13:31:44;;;;;;;;;;;24.70;99.90;;;;;;5133571;27;19915;-44
2023/08/15 13:34:09;;;;;;;;;;;24.50;99.90;;;;;;5137083;27;19944;-43
2023/08/15 13:36:35;;;;;;;;;;;24.50;99.90;;;;;;5145084;27;20303;-43
2023/08/15 13:39:00;;;;;;;;;;;24.50;99.90;;;;;;5152811;27;19911;-45
2023/08/15 13:41:26;;;;;;;;;;;24.90;99.90;;;;;;5151701;27;19911;-44
2023/08/15 13:43:52;;;;;;;;;;;25.00;99.90;;;;;;5154218;27;20370;-44
2023/08/15 13:46:17;;;;;;;;;;;25.00;99.90;;;;;;5154438;27;19908;-47
2023/08/15 13:48:43;;;;;;;;;;;25.20;99.90;;;;;;5152368;27;20369;-44
2023/08/15 13:51:16;;;;;;;;;;;25.50;99.90;;;;;;5154801;27;19907;-42
2023/08/15 13:53:42;;;;;;;;;;;25.50;99.90;;;;;;5146151;27;19919;-43
2023/08/15 13:56:07;;;;;;;;;;;25.30;99.90;;;;;;5133708;28;20246;-43
2023/08/15 13:58:33;;;;;;;;;;;25.00;99.90;;;;;;5134286;28;19911;-45
2023/08/15 14:00:58;;;;;;;;;;;24.80;99.90;;;;;;5134387;28;19912;-43
2023/08/15 14:03:29;;;;;;;;;;;24.50;99.90;;;;;;5133856;28;19911;-47
2023/08/15 14:05:55;;;;;;;;;;;24.50;99.90;;;;;;5134569;28;19911;-44
2023/08/15 14:08:20;;;;;;;;;;;25.00;99.90;;;;;;5138010;27;19918;-47
2023/08/15 14:10:46;;;;;;;;;;;25.10;99.90;;;;;;5133407;27;19911;-45
2023/08/15 14:13:11;;;;;;;;;;;25.10;99.90;;;;;;5134000;28;20379;-45